Time;durP1;ratioP1;P1;durP2;ratioP2;P2;SDS_P1;SDS_P2;PMS_P1;PMS_P2;Temp;Humidity;BMP_temperature;BMP_pressure;BME280_temperature;BME280_humidity;BME280_pressure;Samples;Min_cycle;Max_cycle;Signal;HPM_P1;HPM_P2
2021/06/17 00:02:18;;;;;;;0.00;0.00;;;26.30;51.70;;;;;;4988187;28;20488;-88
2021/06/17 00:04:44;;;;;;;5.68;0.20;;;26.20;52.00;;;;;;4994452;28;20038;-89
2021/06/17 00:07:10;;;;;;;0.10;0.00;;;26.10;52.10;;;;;;5010043;28;20411;-88
2021/06/17 00:09:36;;;;;;;1.08;0.00;;;26.00;52.30;;;;;;4974319;28;20043;-88
2021/06/17 00:12:03;;;;;;;0.25;0.10;;;25.80;52.50;;;;;;4999166;28;20041;-88
2021/06/17 00:14:30;;;;;;;0.38;0.10;;;25.60;52.70;;;;;;4973629;28;20408;-86
2021/06/17 00:16:56;;;;;;;0.47;0.20;;;25.50;53.00;;;;;;4977041;28;20046;-87
2021/06/17 00:19:23;;;;;;;0.73;0.00;;;25.40;53.20;;;;;;4989609;28;20042;-87
2021/06/17 00:21:49;;;;;;;0.20;0.10;;;25.30;53.40;;;;;;4989323;28;20035;-88
2021/06/17 00:24:15;;;;;;;1.13;0.05;;;25.30;53.60;;;;;;4989152;28;20027;-88
2021/06/17 00:26:41;;;;;;;3.35;0.30;;;25.30;53.90;;;;;;4972705;28;20047;-87
2021/06/17 00:29:07;;;;;;;0.10;0.00;;;25.20;54.00;;;;;;4957264;28;20039;-83
2021/06/17 00:31:33;;;;;;;0.17;0.00;;;25.10;54.10;;;;;;4986397;28;20038;-87
2021/06/17 00:33:59;;;;;;;0.08;0.00;;;25.10;54.40;;;;;;4979944;28;20035;-87
2021/06/17 00:36:25;;;;;;;0.10;0.00;;;25.00;54.50;;;;;;4958570;28;20042;-87
2021/06/17 00:38:52;;;;;;;1.13;0.22;;;24.90;54.70;;;;;;4976383;28;20020;-84
2021/06/17 00:41:18;;;;;;;0.25;0.10;;;24.90;54.90;;;;;;4973165;28;20034;-87
2021/06/17 00:43:44;;;;;;;0.63;0.08;;;24.80;55.10;;;;;;5010320;28;20492;-86
2021/06/17 00:46:11;;;;;;;0.45;0.10;;;24.70;55.40;;;;;;4992603;28;20046;-86
2021/06/17 00:48:37;;;;;;;0.52;0.22;;;24.60;55.60;;;;;;4988654;28;20030;-86
2021/06/17 00:51:04;;;;;;;0.52;0.20;;;24.50;55.80;;;;;;4972711;28;20050;-86
2021/06/17 00:53:33;;;;;;;1.05;0.10;;;24.40;55.90;;;;;;4972733;28;20030;-85
2021/06/17 00:56:00;;;;;;;1.45;0.85;;;24.40;56.40;;;;;;4972202;28;20042;-86
2021/06/17 00:58:26;;;;;;;0.40;0.13;;;24.30;56.50;;;;;;4972757;28;20027;-86
2021/06/17 01:00:52;;;;;;;0.85;0.00;;;24.20;56.90;;;;;;4988166;28;20504;-85
2021/06/17 01:03:19;;;;;;;3.75;0.20;;;24.10;57.20;;;;;;4988504;28;20054;-87
2021/06/17 01:05:45;;;;;;;0.68;0.25;;;23.90;57.60;;;;;;4972493;28;20043;-85
2021/06/17 01:08:14;;;;;;;0.38;0.20;;;23.90;57.80;;;;;;4972448;28;20027;-85
2021/06/17 01:10:55;;;;;;;0.00;0.00;;;23.80;58.10;;;;;;4973709;28;20034;-85
2021/06/17 01:13:37;;;;;;;0.38;0.05;;;23.70;58.20;;;;;;5004886;28;20373;-85
2021/06/17 01:16:16;;;;;;;0.70;0.20;;;23.70;58.30;;;;;;4987851;28;20049;-86
2021/06/17 01:18:53;;;;;;;0.30;0.10;;;23.60;58.40;;;;;;4972301;28;20031;-85
2021/06/17 01:21:31;;;;;;;0.10;0.00;;;23.60;58.60;;;;;;4956259;28;20043;-85
2021/06/17 01:24:35;;;;;;;0.05;0.00;;;23.50;58.60;;;;;;4972129;28;20498;-86
2021/06/17 01:27:32;;;;;;;0.05;0.00;;;23.60;58.60;;;;;;4994055;28;20047;-84
2021/06/17 01:30:10;;;;;;;0.60;0.10;;;23.60;58.40;;;;;;4972283;28;20027;-85
2021/06/17 01:32:40;;;;;;;0.03;0.00;;;23.70;58.90;;;;;;4958899;28;20042;-86
2021/06/17 01:35:08;;;;;;;0.65;0.10;;;23.80;58.30;;;;;;4972169;28;20023;-86
2021/06/17 01:37:34;;;;;;;0.47;0.20;;;23.80;58.20;;;;;;4973583;28;20053;-86
2021/06/17 01:40:00;;;;;;;0.28;0.00;;;23.90;58.20;;;;;;4971534;28;20038;-85
2021/06/17 01:42:26;;;;;;;0.30;0.00;;;23.90;58.20;;;;;;4971969;28;20391;-86
2021/06/17 01:44:56;;;;;;;0.95;0.20;;;24.00;58.30;;;;;;4971895;28;20035;-85
2021/06/17 01:47:24;;;;;;;0.52;0.20;;;23.90;59.00;;;;;;4986600;28;20058;-85
2021/06/17 01:49:50;;;;;;;0.20;0.10;;;23.90;58.50;;;;;;4992794;28;20042;-86
2021/06/17 01:52:16;;;;;;;0.35;0.20;;;23.90;58.60;;;;;;4972759;28;20040;-87
2021/06/17 01:54:42;;;;;;;0.30;0.10;;;23.80;58.80;;;;;;4986867;28;20038;-86
2021/06/17 01:57:09;;;;;;;0.40;0.10;;;23.70;58.90;;;;;;4992457;28;20039;-82
2021/06/17 01:59:35;;;;;;;1.17;0.10;;;23.70;59.00;;;;;;4972859;28;20023;-86
2021/06/17 02:02:02;;;;;;;0.43;0.20;;;23.70;59.20;;;;;;4969442;28;20027;-83
2021/06/17 02:04:28;;;;;;;0.50;0.45;;;23.60;59.40;;;;;;4961144;28;20035;-84
2021/06/17 02:06:55;;;;;;;0.10;0.10;;;23.60;59.40;;;;;;4969333;28;20124;-85
2021/06/17 02:09:23;;;;;;;0.20;0.10;;;23.50;59.50;;;;;;4973664;28;20053;-86
2021/06/17 02:11:49;;;;;;;0.38;0.10;;;23.50;59.60;;;;;;4971234;28;20472;-85
2021/06/17 02:14:15;;;;;;;0.20;0.00;;;23.50;59.60;;;;;;4972594;28;20035;-85
2021/06/17 02:16:42;;;;;;;0.35;0.05;;;23.60;59.70;;;;;;4972523;28;20508;-83
2021/06/17 02:19:10;;;;;;;0.20;0.00;;;23.60;59.60;;;;;;4972110;28;20026;-85
2021/06/17 02:21:36;;;;;;;0.10;0.00;;;23.70;59.50;;;;;;4970906;28;20391;-85
2021/06/17 02:24:03;;;;;;;0.00;0.00;;;23.70;59.50;;;;;;4973167;28;20384;-85
2021/06/17 02:26:29;;;;;;;0.57;0.05;;;23.70;59.60;;;;;;4986922;28;20515;-85
2021/06/17 02:28:55;;;;;;;0.73;0.30;;;23.80;59.60;;;;;;4974344;28;20045;-81
2021/06/17 02:31:28;;;;;;;1.25;0.05;;;23.80;60.30;;;;;;4970218;28;20039;-85
2021/06/17 02:33:54;;;;;;;0.65;0.20;;;23.70;59.80;;;;;;4970453;28;20492;-84
2021/06/17 02:36:25;;;;;;;3.03;0.10;;;23.60;59.90;;;;;;4986957;28;20034;-84
2021/06/17 02:38:55;;;;;;;0.55;0.08;;;23.60;60.10;;;;;;4964086;28;20026;-86
2021/06/17 02:41:21;;;;;;;0.10;0.03;;;23.50;60.20;;;;;;4974991;28;20023;-85
2021/06/17 02:43:47;;;;;;;0.38;0.10;;;23.50;60.30;;;;;;4975404;28;20034;-85
2021/06/17 02:46:15;;;;;;;0.32;0.17;;;23.50;60.50;;;;;;4990429;28;20480;-85
2021/06/17 02:48:41;;;;;;;0.57;0.20;;;23.50;60.50;;;;;;4975136;28;20050;-85
2021/06/17 02:51:07;;;;;;;0.65;0.20;;;23.50;60.50;;;;;;4976209;28;20030;-85
2021/06/17 02:53:33;;;;;;;0.47;0.10;;;23.50;60.50;;;;;;4975714;28;20027;-84
2021/06/17 02:55:59;;;;;;;0.30;0.17;;;23.50;60.50;;;;;;4976145;28;20041;-86
2021/06/17 02:58:47;;;;;;;0.65;0.35;;;23.50;60.50;;;;;;4974908;28;20031;-84
2021/06/17 03:01:38;;;;;;;0.32;0.15;;;23.50;60.70;;;;;;4989170;28;20400;-84
2021/06/17 03:04:13;;;;;;;0.40;0.28;;;23.50;60.70;;;;;;4975730;28;20043;-85
2021/06/17 03:06:41;;;;;;;0.30;0.05;;;23.50;60.60;;;;;;4974143;28;20377;-85
2021/06/17 03:09:09;;;;;;;0.17;0.05;;;23.50;60.60;;;;;;4956517;28;20114;-85
2021/06/17 03:11:35;;;;;;;0.60;0.05;;;23.50;60.70;;;;;;4974556;28;20027;-84
2021/06/17 03:14:04;;;;;;;0.03;0.00;;;23.50;60.80;;;;;;4974702;28;20034;-85
2021/06/17 03:16:31;;;;;;;0.55;0.00;;;23.40;60.90;;;;;;4973675;28;20042;-86
2021/06/17 03:18:58;;;;;;;0.28;0.20;;;23.40;61.00;;;;;;4973848;28;20023;-85
2021/06/17 03:21:24;;;;;;;1.38;0.35;;;23.40;61.10;;;;;;4974078;28;20031;-86
2021/06/17 03:23:50;;;;;;;0.20;0.00;;;23.30;61.10;;;;;;4958357;28;20465;-85
2021/06/17 03:26:16;;;;;;;1.83;0.20;;;23.30;61.30;;;;;;4974219;28;20055;-84
2021/06/17 03:28:43;;;;;;;0.15;0.10;;;23.30;61.50;;;;;;4974700;28;20042;-84
2021/06/17 03:31:10;;;;;;;0.82;0.20;;;23.20;61.50;;;;;;4973615;28;20034;-84
2021/06/17 03:33:37;;;;;;;0.00;0.00;;;23.20;61.60;;;;;;4974117;28;20027;-85
2021/06/17 03:36:05;;;;;;;0.28;0.00;;;23.20;61.80;;;;;;4989795;28;20042;-85
2021/06/17 03:38:31;;;;;;;2.30;0.22;;;23.10;61.90;;;;;;4956664;28;20045;-84
2021/06/17 03:40:57;;;;;;;0.10;0.00;;;23.10;61.90;;;;;;4974287;28;20031;-83
2021/06/17 03:43:23;;;;;;;0.43;0.00;;;23.00;61.90;;;;;;4975183;28;20034;-83
2021/06/17 03:45:49;;;;;;;0.70;0.10;;;23.10;62.10;;;;;;4979632;28;20069;-84
2021/06/17 03:48:15;;;;;;;0.22;0.10;;;23.00;62.10;;;;;;4986792;28;20026;-85
2021/06/17 03:50:42;;;;;;;0.40;0.30;;;23.00;62.20;;;;;;4975606;28;20031;-84
2021/06/17 03:53:08;;;;;;;6.50;0.43;;;23.00;62.20;;;;;;4976033;28;20412;-84
2021/06/17 03:55:35;;;;;;;1.40;0.20;;;23.00;62.30;;;;;;4994633;28;20477;-84
2021/06/17 03:58:01;;;;;;;0.52;0.10;;;23.00;62.30;;;;;;4994042;28;20035;-80
2021/06/17 04:00:29;;;;;;;0.10;0.00;;;23.00;62.30;;;;;;4993549;28;20042;-84
2021/06/17 04:02:56;;;;;;;0.10;0.00;;;23.00;62.30;;;;;;4973750;28;20036;-84
2021/06/17 04:05:22;;;;;;;0.10;0.00;;;23.00;62.30;;;;;;4973181;28;20034;-84
2021/06/17 04:07:48;;;;;;;0.50;0.20;;;23.00;62.30;;;;;;4974030;28;20042;-84
2021/06/17 04:10:15;;;;;;;0.32;0.10;;;23.00;62.30;;;;;;4989669;28;20035;-85
2021/06/17 04:12:41;;;;;;;0.10;0.00;;;23.00;62.30;;;;;;4973308;28;20039;-83
2021/06/17 04:15:09;;;;;;;0.00;0.00;;;23.00;62.30;;;;;;4974872;28;20354;-84
2021/06/17 04:17:42;;;;;;;0.10;0.00;;;23.00;62.30;;;;;;4988529;28;20053;-84
2021/06/17 04:20:12;;;;;;;0.20;0.10;;;23.00;62.40;;;;;;4975324;28;20034;-85
2021/06/17 04:22:41;;;;;;;3.27;0.10;;;23.00;62.50;;;;;;5008509;28;20034;-84
2021/06/17 04:25:09;;;;;;;0.75;0.08;;;23.00;62.50;;;;;;4978716;28;20399;-84
2021/06/17 04:27:35;;;;;;;0.47;0.00;;;23.00;62.50;;;;;;4959970;28;20058;-84
2021/06/17 04:30:01;;;;;;;0.08;0.03;;;23.00;62.60;;;;;;4976680;28;20026;-83
2021/06/17 04:32:27;;;;;;;0.85;0.03;;;22.90;62.70;;;;;;4972321;28;20053;-86
2021/06/17 04:34:54;;;;;;;1.17;0.22;;;22.90;62.70;;;;;;4973299;28;20034;-84
2021/06/17 04:37:23;;;;;;;0.08;0.00;;;22.90;62.70;;;;;;4972850;28;20038;-84
2021/06/17 04:39:50;;;;;;;1.13;0.05;;;22.90;62.80;;;;;;4957381;28;20046;-84
2021/06/17 04:42:16;;;;;;;0.73;0.10;;;22.90;62.70;;;;;;4972929;28;20038;-84
2021/06/17 04:44:43;;;;;;;0.20;0.03;;;22.90;62.80;;;;;;4972878;28;20035;-84
2021/06/17 04:47:09;;;;;;;0.00;0.00;;;22.90;62.80;;;;;;4987758;28;20069;-85
2021/06/17 04:49:35;;;;;;;4.90;0.43;;;22.90;62.80;;;;;;5009623;28;20041;-84
2021/06/17 04:52:03;;;;;;;3.13;0.20;;;22.90;62.80;;;;;;5009580;28;20031;-83
2021/06/17 04:54:29;;;;;;;0.10;0.00;;;22.90;63.00;;;;;;5009372;28;20031;-84
2021/06/17 04:56:55;;;;;;;0.25;0.10;;;22.80;63.00;;;;;;4977628;28;20372;-84
2021/06/17 04:59:21;;;;;;;0.00;0.00;;;22.80;63.10;;;;;;4973025;28;20035;-84
2021/06/17 05:01:47;;;;;;;1.13;0.22;;;22.80;63.20;;;;;;5009163;28;20511;-84
2021/06/17 05:04:16;;;;;;;0.88;0.10;;;22.80;63.20;;;;;;4973595;28;20030;-84
2021/06/17 05:06:52;;;;;;;0.10;0.00;;;22.80;63.30;;;;;;4973543;28;20053;-84
2021/06/17 05:12:04;;;;;;;3.42;0.20;;;22.80;63.30;;;;;;4973986;28;20030;-84
2021/06/17 05:14:30;;;;;;;6.00;0.43;;;22.80;63.20;;;;;;4978537;28;20027;-84
2021/06/17 05:16:56;;;;;;;1.25;0.28;;;22.70;63.20;;;;;;4988546;28;20042;-84
2021/06/17 05:19:22;;;;;;;0.20;0.17;;;22.80;63.30;;;;;;5009277;28;20041;-84
2021/06/17 05:21:48;;;;;;;3.72;0.47;;;22.70;63.50;;;;;;4977832;28;20034;-84
2021/06/17 05:24:14;;;;;;;0.45;0.20;;;22.70;63.60;;;;;;4977782;28;20030;-82
2021/06/17 05:26:40;;;;;;;0.17;0.00;;;22.70;63.60;;;;;;4973865;28;20476;-84
2021/06/17 05:29:06;;;;;;;0.52;0.08;;;22.70;63.50;;;;;;4974728;28;20046;-84
2021/06/17 05:31:32;;;;;;;0.60;0.10;;;22.70;63.50;;;;;;4977218;28;20035;-84
2021/06/17 05:33:58;;;;;;;0.38;0.10;;;22.80;63.70;;;;;;4971927;28;20031;-84
2021/06/17 05:36:24;;;;;;;0.75;0.10;;;22.70;63.60;;;;;;4973197;28;20027;-84
2021/06/17 05:38:51;;;;;;;1.02;0.20;;;22.70;63.70;;;;;;4973514;28;20038;-85
2021/06/17 05:41:17;;;;;;;1.02;0.30;;;22.70;63.80;;;;;;4971972;28;20043;-84
2021/06/17 05:43:44;;;;;;;0.47;0.35;;;22.70;64.60;;;;;;4988676;28;20035;-83
2021/06/17 05:46:10;;;;;;;0.10;0.00;;;22.70;63.90;;;;;;4987183;28;20046;-84
2021/06/17 05:48:36;;;;;;;3.83;0.13;;;22.70;64.00;;;;;;4973000;28;20038;-84
2021/06/17 05:51:02;;;;;;;0.28;0.10;;;22.60;64.00;;;;;;4971788;28;20035;-83
2021/06/17 05:53:28;;;;;;;0.60;0.10;;;22.60;64.00;;;;;;4971767;28;20038;-84
2021/06/17 05:55:54;;;;;;;0.30;0.10;;;22.60;64.10;;;;;;4972371;28;20027;-84
2021/06/17 05:58:20;;;;;;;0.50;0.05;;;22.60;64.20;;;;;;4972847;28;20035;-84
2021/06/17 06:00:46;;;;;;;0.28;0.00;;;22.50;64.30;;;;;;4976848;28;20031;-84
2021/06/17 06:03:13;;;;;;;0.73;0.10;;;22.50;64.60;;;;;;4985124;28;20493;-84
2021/06/17 06:05:39;;;;;;;0.47;0.20;;;22.50;64.70;;;;;;4973296;28;20043;-84
2021/06/17 06:08:11;;;;;;;0.10;0.00;;;22.50;64.80;;;;;;4974342;28;20046;-84
2021/06/17 06:10:41;;;;;;;0.98;0.38;;;22.40;64.90;;;;;;4975775;28;20042;-84
2021/06/17 06:13:07;;;;;;;0.40;0.15;;;22.40;65.00;;;;;;4976050;28;20511;-83
2021/06/17 06:15:34;;;;;;;1.23;0.52;;;22.40;65.20;;;;;;4976324;28;20485;-84
2021/06/17 06:18:14;;;;;;;0.45;0.10;;;22.40;65.20;;;;;;4971515;28;20023;-84
2021/06/17 06:20:41;;;;;;;0.47;0.15;;;22.30;65.20;;;;;;4971620;28;20022;-84
2021/06/17 06:23:07;;;;;;;0.10;0.00;;;22.40;65.30;;;;;;4972954;28;20027;-84
2021/06/17 06:25:34;;;;;;;2.95;0.20;;;22.40;65.20;;;;;;4988196;28;20054;-82
2021/06/17 06:28:00;;;;;;;0.52;0.10;;;22.40;65.20;;;;;;4971533;28;20042;-84
2021/06/17 06:30:26;;;;;;;0.15;0.00;;;22.50;65.20;;;;;;4986907;28;20412;-82
2021/06/17 06:32:52;;;;;;;0.45;0.00;;;22.40;65.10;;;;;;4971521;28;20031;-83
2021/06/17 06:35:18;;;;;;;0.43;0.00;;;22.50;65.00;;;;;;4971643;28;20361;-83
2021/06/17 06:37:51;;;;;;;0.50;0.00;;;22.60;64.80;;;;;;4971850;28;20043;-82
2021/06/17 06:40:17;;;;;;;0.43;0.10;;;22.70;64.70;;;;;;4971716;28;20027;-81
2021/06/17 06:42:44;;;;;;;0.00;0.00;;;22.80;64.50;;;;;;4954569;28;20046;-82
2021/06/17 06:45:11;;;;;;;0.10;0.00;;;22.90;64.40;;;;;;4971510;28;20051;-83
2021/06/17 06:47:37;;;;;;;0.10;0.08;;;22.90;64.20;;;;;;4986566;28;20043;-81
2021/06/17 06:50:04;;;;;;;0.68;0.20;;;23.00;64.00;;;;;;4958447;28;20038;-83
2021/06/17 06:52:30;;;;;;;0.00;0.00;;;23.00;64.00;;;;;;4976966;28;20030;-84
2021/06/17 06:54:58;;;;;;;0.47;0.03;;;23.10;63.90;;;;;;4980299;28;20026;-82
2021/06/17 06:57:28;;;;;;;3.17;0.30;;;23.10;63.90;;;;;;4979099;28;20027;-85
2021/06/17 06:59:54;;;;;;;0.10;0.00;;;23.10;63.70;;;;;;4977924;28;20045;-83
2021/06/17 07:02:20;;;;;;;0.65;0.17;;;23.20;63.70;;;;;;4974742;28;20043;-85
2021/06/17 07:04:46;;;;;;;0.00;0.00;;;23.30;63.70;;;;;;4991435;28;20380;-85
2021/06/17 07:07:12;;;;;;;0.03;0.00;;;23.30;63.60;;;;;;4974532;28;20425;-84
2021/06/17 07:09:38;;;;;;;0.32;0.20;;;23.40;63.50;;;;;;4974573;28;20043;-85
2021/06/17 07:12:05;;;;;;;0.35;0.10;;;23.50;63.40;;;;;;4974432;28;20027;-86
2021/06/17 07:14:32;;;;;;;0.28;0.08;;;23.50;63.30;;;;;;4974002;28;20480;-84
2021/06/17 07:16:58;;;;;;;1.90;0.40;;;23.60;63.20;;;;;;4989752;28;20403;-84
2021/06/17 07:19:24;;;;;;;0.28;0.10;;;23.60;63.20;;;;;;4995001;28;20034;-83
2021/06/17 07:21:50;;;;;;;0.20;0.10;;;23.70;63.20;;;;;;4979948;28;20050;-84
2021/06/17 07:24:16;;;;;;;0.20;0.00;;;23.70;63.10;;;;;;4978541;28;20027;-85
2021/06/17 07:26:42;;;;;;;0.38;0.20;;;23.70;63.10;;;;;;4976044;28;20054;-83
2021/06/17 07:29:08;;;;;;;0.75;0.00;;;23.70;63.10;;;;;;4976452;28;20495;-85
2021/06/17 07:31:36;;;;;;;0.30;0.10;;;23.70;63.10;;;;;;5010947;28;20405;-83
2021/06/17 07:34:03;;;;;;;0.00;0.00;;;23.70;63.20;;;;;;4974103;28;20495;-85
2021/06/17 07:36:30;;;;;;;0.30;0.10;;;23.70;63.30;;;;;;4975208;28;20384;-84
2021/06/17 07:38:56;;;;;;;0.00;0.00;;;23.60;63.30;;;;;;4974231;28;20030;-85
2021/06/17 07:41:22;;;;;;;0.85;0.30;;;23.60;63.40;;;;;;4973674;28;20035;-85
2021/06/17 07:43:48;;;;;;;0.00;0.00;;;23.60;63.40;;;;;;4990515;28;20384;-85
2021/06/17 07:46:14;;;;;;;0.35;0.00;;;23.60;63.40;;;;;;4973193;28;20058;-85
2021/06/17 07:48:41;;;;;;;0.00;0.00;;;23.60;63.50;;;;;;4974796;28;20046;-84
2021/06/17 07:51:10;;;;;;;0.10;0.00;;;23.70;63.40;;;;;;4974887;28;20023;-85
2021/06/17 07:53:36;;;;;;;1.15;0.30;;;23.60;63.50;;;;;;4973813;28;20484;-85
2021/06/17 07:56:02;;;;;;;0.98;0.35;;;23.60;63.60;;;;;;4973613;28;20039;-84
2021/06/17 07:58:28;;;;;;;1.38;0.30;;;23.60;63.70;;;;;;4975187;28;20034;-85
2021/06/17 08:00:54;;;;;;;1.17;0.28;;;23.60;63.80;;;;;;4980217;28;20045;-84
2021/06/17 08:03:20;;;;;;;0.57;0.10;;;23.60;63.80;;;;;;4987073;28;20045;-85
2021/06/17 08:05:46;;;;;;;0.40;0.10;;;23.60;63.90;;;;;;4976427;28;20042;-85
2021/06/17 08:08:12;;;;;;;0.68;0.10;;;23.60;63.80;;;;;;4976275;28;20039;-85
2021/06/17 08:10:40;;;;;;;0.85;0.20;;;23.60;63.80;;;;;;5010458;28;20034;-84
2021/06/17 08:13:06;;;;;;;0.47;0.20;;;23.70;63.80;;;;;;5009843;28;20035;-86
2021/06/17 08:15:32;;;;;;;0.93;0.40;;;23.70;63.70;;;;;;4993558;28;20050;-85
2021/06/17 08:17:58;;;;;;;0.60;0.30;;;23.80;63.60;;;;;;4989470;28;20460;-85
2021/06/17 08:20:25;;;;;;;4.22;0.60;;;23.90;63.50;;;;;;4957506;28;20039;-85
2021/06/17 08:22:51;;;;;;;1.10;0.17;;;23.90;63.30;;;;;;4973803;28;20022;-85
2021/06/17 08:25:17;;;;;;;1.23;0.52;;;24.10;63.20;;;;;;4974041;28;20099;-85
2021/06/17 08:27:43;;;;;;;0.43;0.10;;;24.30;62.80;;;;;;4973081;28;20042;-85
2021/06/17 08:30:11;;;;;;;0.70;0.20;;;24.50;62.40;;;;;;4974850;28;20027;-85
2021/06/17 08:32:37;;;;;;;0.85;0.20;;;24.70;62.10;;;;;;4989517;28;20388;-85
2021/06/17 08:35:04;;;;;;;1.80;0.57;;;25.10;61.70;;;;;;4960330;28;20042;-84
2021/06/17 08:37:30;;;;;;;0.65;0.28;;;25.30;61.10;;;;;;4993083;28;20046;-85
2021/06/17 08:39:58;;;;;;;2.08;0.65;;;25.60;60.80;;;;;;4978032;28;20480;-85
2021/06/17 08:42:28;;;;;;;1.70;0.43;;;25.80;60.50;;;;;;4977053;28;20034;-85
2021/06/17 08:44:55;;;;;;;0.57;0.20;;;26.00;60.20;;;;;;4959354;28;20031;-86
2021/06/17 08:47:21;;;;;;;0.40;0.10;;;26.10;60.10;;;;;;4972849;28;20045;-86
2021/06/17 08:49:51;;;;;;;0.55;0.30;;;26.00;60.20;;;;;;4989487;28;20472;-85
2021/06/17 08:52:18;;;;;;;2.10;0.40;;;26.00;60.20;;;;;;4973720;28;20042;-85
2021/06/17 08:54:44;;;;;;;0.98;0.50;;;26.10;60.20;;;;;;4972257;28;20034;-85
2021/06/17 08:57:10;;;;;;;2.50;0.20;;;26.20;60.00;;;;;;4973689;28;20046;-85
2021/06/17 08:59:41;;;;;;;5.72;0.43;;;26.40;59.90;;;;;;4973780;28;20022;-85
2021/06/17 09:02:07;;;;;;;1.00;0.40;;;26.40;59.70;;;;;;4988666;28;20030;-84
2021/06/17 09:04:34;;;;;;;3.25;0.30;;;26.50;59.60;;;;;;5010459;28;20393;-85
2021/06/17 09:07:13;;;;;;;0.50;0.17;;;26.70;59.50;;;;;;5012784;28;20038;-86
2021/06/17 09:09:45;;;;;;;1.10;0.30;;;26.90;59.20;;;;;;4980947;28;20038;-85
2021/06/17 09:12:17;;;;;;;0.85;0.52;;;27.20;58.90;;;;;;4991905;28;20042;-85
2021/06/17 09:14:51;;;;;;;1.48;0.52;;;27.50;58.50;;;;;;4974396;28;20507;-86
2021/06/17 09:17:18;;;;;;;4.18;0.20;;;27.70;58.70;;;;;;4973924;28;20404;-86
2021/06/17 09:19:46;;;;;;;1.42;0.30;;;28.00;57.80;;;;;;4974172;28;20031;-85
2021/06/17 09:22:16;;;;;;;1.45;0.43;;;28.10;57.60;;;;;;4972162;28;20029;-86
2021/06/17 09:24:44;;;;;;;1.00;0.10;;;28.30;57.40;;;;;;4971909;28;20403;-86
2021/06/17 09:27:31;;;;;;;0.60;0.22;;;28.40;57.20;;;;;;4971971;28;20049;-86
2021/06/17 09:30:12;;;;;;;0.10;0.00;;;28.70;56.90;;;;;;4972998;28;20042;-86
2021/06/17 09:32:50;;;;;;;6.07;0.50;;;28.90;56.50;;;;;;4958577;28;20045;-86
2021/06/17 09:35:20;;;;;;;0.88;0.30;;;29.10;56.30;;;;;;4973388;28;20038;-85
2021/06/17 09:37:47;;;;;;;0.80;0.22;;;29.30;56.10;;;;;;4972011;28;20042;-87
2021/06/17 09:40:34;;;;;;;0.68;0.22;;;29.30;55.90;;;;;;4973181;28;20047;-85
2021/06/17 09:43:28;;;;;;;0.52;0.20;;;29.50;55.80;;;;;;4973139;28;20031;-86
2021/06/17 09:45:55;;;;;;;0.95;0.30;;;29.60;55.50;;;;;;4979433;28;20034;-85
2021/06/17 09:48:35;;;;;;;0.30;0.20;;;29.60;55.50;;;;;;4984062;28;20034;-87
2021/06/17 09:51:20;;;;;;;2.97;0.57;;;29.60;55.40;;;;;;4975933;28;20053;-85
2021/06/17 09:53:46;;;;;;;0.70;0.20;;;29.70;55.20;;;;;;4974067;28;20029;-86
2021/06/17 09:56:16;;;;;;;1.52;0.50;;;29.70;55.10;;;;;;4973425;28;20027;-84
2021/06/17 09:58:44;;;;;;;4.03;0.10;;;29.60;55.20;;;;;;4992911;28;20506;-86
2021/06/17 10:01:17;;;;;;;0.50;0.17;;;29.40;55.40;;;;;;5007524;28;20035;-86
2021/06/17 10:04:06;;;;;;;0.60;0.22;;;29.20;55.60;;;;;;4987268;28;20031;-85
2021/06/17 10:06:34;;;;;;;1.52;0.25;;;29.10;55.60;;;;;;4971405;28;20499;-85
2021/06/17 10:09:05;;;;;;;0.55;0.22;;;29.10;55.60;;;;;;4972872;28;20448;-86
2021/06/17 10:11:32;;;;;;;5.35;0.25;;;29.00;55.50;;;;;;4971783;28;20461;-84
2021/06/17 10:13:59;;;;;;;0.65;0.17;;;29.00;55.50;;;;;;4971835;28;20043;-85
2021/06/17 10:16:25;;;;;;;0.73;0.10;;;29.10;55.40;;;;;;4971388;28;20136;-85
2021/06/17 10:18:51;;;;;;;1.38;0.30;;;29.20;55.20;;;;;;4972804;28;20034;-86
2021/06/17 10:21:17;;;;;;;1.83;0.55;;;29.30;55.00;;;;;;4971520;28;20062;-86
2021/06/17 10:23:45;;;;;;;0.52;0.10;;;29.40;54.80;;;;;;4972801;28;20389;-85
2021/06/17 10:26:12;;;;;;;3.35;0.20;;;29.40;54.50;;;;;;4971744;28;20476;-85
2021/06/17 10:28:49;;;;;;;0.57;0.15;;;29.50;54.40;;;;;;4988621;28;20492;-87
2021/06/17 10:31:38;;;;;;;0.50;0.10;;;29.50;54.30;;;;;;4974725;28;20035;-87
2021/06/17 10:34:23;;;;;;;0.93;0.28;;;29.50;54.20;;;;;;4976428;28;20515;-86
2021/06/17 10:37:08;;;;;;;0.82;0.28;;;29.50;54.00;;;;;;4975927;28;20046;-86
2021/06/17 10:39:42;;;;;;;0.60;0.10;;;29.40;53.90;;;;;;4976438;28;20030;-86
2021/06/17 10:42:13;;;;;;;3.42;0.60;;;29.40;53.90;;;;;;4975094;28;20023;-86
2021/06/17 10:44:43;;;;;;;2.25;0.43;;;29.30;53.90;;;;;;4959471;28;20039;-86
2021/06/17 10:47:09;;;;;;;0.40;0.00;;;29.20;53.90;;;;;;4991001;28;20053;-86
2021/06/17 10:49:50;;;;;;;0.77;0.17;;;29.20;53.90;;;;;;5012185;28;20048;-86
2021/06/17 10:52:25;;;;;;;0.57;0.17;;;29.20;53.80;;;;;;5011726;28;20049;-85
2021/06/17 10:55:01;;;;;;;1.95;0.30;;;29.20;53.70;;;;;;4995437;28;20054;-86
2021/06/17 10:57:45;;;;;;;0.65;0.17;;;29.30;53.60;;;;;;5011566;28;20037;-86
2021/06/17 11:00:28;;;;;;;0.10;0.00;;;29.30;53.50;;;;;;4979629;28;20026;-86
2021/06/17 11:03:18;;;;;;;1.15;0.28;;;29.30;53.40;;;;;;4990810;28;20031;-86
2021/06/17 11:05:46;;;;;;;1.75;0.43;;;29.30;53.30;;;;;;4958705;28;20043;-86
2021/06/17 11:08:24;;;;;;;0.88;0.30;;;29.40;53.10;;;;;;4975851;28;20031;-85
2021/06/17 11:10:54;;;;;;;0.80;0.43;;;29.50;53.00;;;;;;4975966;28;20042;-86
2021/06/17 11:13:34;;;;;;;1.08;0.47;;;29.60;52.90;;;;;;4958428;28;20395;-86
2021/06/17 11:16:06;;;;;;;0.73;0.35;;;29.70;52.80;;;;;;4981655;28;20050;-85
2021/06/17 11:18:42;;;;;;;0.88;0.30;;;29.70;52.60;;;;;;4986574;28;20059;-85
2021/06/17 11:21:23;;;;;;;2.75;0.47;;;29.70;52.50;;;;;;4979992;28;20030;-86
2021/06/17 11:23:50;;;;;;;0.85;0.20;;;29.80;52.40;;;;;;4978429;28;20022;-86
2021/06/17 11:26:49;;;;;;;0.45;0.10;;;29.90;52.20;;;;;;4959662;28;20054;-85
2021/06/17 11:29:20;;;;;;;0.52;0.10;;;30.00;52.10;;;;;;4968101;28;20531;-86
2021/06/17 11:31:50;;;;;;;0.40;0.10;;;30.00;51.90;;;;;;4975363;28;20039;-86
2021/06/17 11:34:37;;;;;;;1.08;0.30;;;30.00;52.00;;;;;;5004995;28;20506;-86
2021/06/17 11:37:05;;;;;;;0.20;0.10;;;29.90;51.90;;;;;;4973927;28;20531;-85
2021/06/17 11:39:33;;;;;;;1.13;0.30;;;29.90;51.80;;;;;;4954915;28;20031;-86
2021/06/17 11:42:00;;;;;;;0.43;0.10;;;30.00;51.80;;;;;;4962758;28;20034;-86
2021/06/17 11:44:27;;;;;;;0.52;0.05;;;30.00;51.60;;;;;;4973959;28;20019;-86
2021/06/17 11:47:08;;;;;;;0.20;0.10;;;30.10;51.50;;;;;;4973796;28;20043;-86
2021/06/17 11:49:41;;;;;;;;;;;30.20;51.40;;;;;;4989401;28;20404;-86
2021/06/17 11:52:11;;;;;;;0.50;0.20;;;30.30;51.30;;;;;;5006058;28;19917;-86
2021/06/17 11:54:38;;;;;;;2.53;0.60;;;30.30;51.20;;;;;;4954644;28;20492;-85
2021/06/17 11:57:04;;;;;;;2.33;0.82;;;30.30;51.00;;;;;;4979360;28;20027;-86
2021/06/17 11:59:36;;;;;;;1.13;0.35;;;30.30;50.90;;;;;;4973732;28;20035;-86
2021/06/17 12:02:22;;;;;;;0.60;0.20;;;30.40;50.80;;;;;;4988767;28;20426;-87
2021/06/17 12:05:04;;;;;;;0.68;0.28;;;30.40;50.70;;;;;;5006017;28;20034;-87
2021/06/17 12:07:46;;;;;;;0.63;0.10;;;30.50;50.70;;;;;;4978706;28;20023;-86
2021/06/17 12:10:14;;;;;;;0.60;0.20;;;30.40;50.60;;;;;;4977800;28;20395;-86
2021/06/17 12:12:50;;;;;;;1.15;0.20;;;30.30;50.70;;;;;;4977766;28;20036;-86
2021/06/17 12:15:20;;;;;;;0.47;0.20;;;30.20;50.80;;;;;;4977102;28;20026;-86
2021/06/17 12:17:52;;;;;;;0.60;0.17;;;30.10;50.80;;;;;;4973193;28;20027;-86
2021/06/17 12:20:25;;;;;;;0.90;0.32;;;30.10;50.80;;;;;;4957643;28;20047;-86
2021/06/17 12:22:57;;;;;;;0.35;0.15;;;30.00;50.90;;;;;;4990050;28;20030;-86
2021/06/17 12:25:24;;;;;;;1.60;0.30;;;29.90;50.90;;;;;;4989127;28;20412;-86
2021/06/17 12:27:50;;;;;;;0.75;0.10;;;29.90;50.90;;;;;;4989195;28;20030;-86
2021/06/17 12:30:28;;;;;;;1.80;0.38;;;29.80;50.90;;;;;;4974711;28;20046;-86
2021/06/17 12:33:05;;;;;;;0.20;0.00;;;29.80;50.90;;;;;;4989337;28;20022;-86
2021/06/17 12:35:48;;;;;;;0.63;0.10;;;29.80;50.80;;;;;;4975371;28;20031;-86
2021/06/17 12:38:33;;;;;;;0.20;0.10;;;29.90;50.70;;;;;;4974514;28;20027;-86
2021/06/17 12:41:12;;;;;;;1.48;0.22;;;30.00;50.50;;;;;;4986669;28;20034;-86
2021/06/17 12:43:43;;;;;;;0.17;0.03;;;30.20;50.40;;;;;;5008197;28;20026;-86
2021/06/17 12:46:09;;;;;;;0.10;0.00;;;30.30;50.20;;;;;;4992325;28;20053;-86
2021/06/17 12:54:09;;;;;;;1.60;0.20;;;30.50;50.00;;;;;;4976246;28;20026;-86
2021/06/17 12:56:35;;;;;;;0.40;0.00;;;30.60;49.80;;;;;;4972850;28;20535;-86
2021/06/17 12:59:01;;;;;;;0.73;0.30;;;30.50;49.70;;;;;;4972686;28;20034;-86
2021/06/17 13:01:47;;;;;;;0.45;0.10;;;30.50;49.80;;;;;;4952874;28;20042;-86
2021/06/17 13:04:15;;;;;;;0.93;0.28;;;30.50;49.90;;;;;;4972377;28;20042;-87
2021/06/17 13:06:41;;;;;;;0.65;0.25;;;30.40;49.80;;;;;;4972573;28;20031;-86
2021/06/17 13:09:19;;;;;;;0.17;0.08;;;30.50;49.80;;;;;;4972486;28;20038;-86